sensor_id;sensor_type;location;lat;lon;timestamp;temperature;humidity
8824;DHT22;4448;50.904;4.694;2023-10-09T00:00:34;18.60;99.90
8824;DHT22;4448;50.904;4.694;2023-10-09T00:03:06;18.70;99.90
8824;DHT22;4448;50.904;4.694;2023-10-09T00:05:33;18.60;99.90
8824;DHT22;4448;50.904;4.694;2023-10-09T00:08:20;18.60;99.90
8824;DHT22;4448;50.904;4.694;2023-10-09T00:11:00;18.60;99.90
8824;DHT22;4448;50.904;4.694;2023-10-09T00:13:40;18.60;99.90
8824;DHT22;4448;50.904;4.694;2023-10-09T00:16:15;18.60;99.90
8824;DHT22;4448;50.904;4.694;2023-10-09T00:18:49;18.60;99.90
8824;DHT22;4448;50.904;4.694;2023-10-09T00:21:18;18.60;99.90
8824;DHT22;4448;50.904;4.694;2023-10-09T00:23:48;18.60;99.90
8824;DHT22;4448;50.904;4.694;2023-10-09T00:26:25;18.60;99.90
8824;DHT22;4448;50.904;4.694;2023-10-09T00:28:51;18.60;99.90
8824;DHT22;4448;50.904;4.694;2023-10-09T00:31:18;18.70;99.90
8824;DHT22;4448;50.904;4.694;2023-10-09T00:33:58;18.60;99.90
8824;DHT22;4448;50.904;4.694;2023-10-09T00:36:44;18.60;99.90
8824;DHT22;4448;50.904;4.694;2023-10-09T00:39:16;18.50;99.90
8824;DHT22;4448;50.904;4.694;2023-10-09T00:41:57;18.60;99.90
8824;DHT22;4448;50.904;4.694;2023-10-09T00:44:24;18.60;99.90
8824;DHT22;4448;50.904;4.694;2023-10-09T00:46:51;18.60;99.90
8824;DHT22;4448;50.904;4.694;2023-10-09T00:49:17;18.50;99.90
8824;DHT22;4448;50.904;4.694;2023-10-09T00:51:50;18.60;99.90
8824;DHT22;4448;50.904;4.694;2023-10-09T00:54:21;18.50;99.90
8824;DHT22;4448;50.904;4.694;2023-10-09T00:56:52;18.50;99.90
8824;DHT22;4448;50.904;4.694;2023-10-09T00:59:25;18.50;99.90
8824;DHT22;4448;50.904;4.694;2023-10-09T01:01:51;18.50;99.90
8824;DHT22;4448;50.904;4.694;2023-10-09T01:04:30;18.50;99.90
8824;DHT22;4448;50.904;4.694;2023-10-09T01:07:04;18.50;99.90
8824;DHT22;4448;50.904;4.694;2023-10-09T01:09:46;18.50;99.90
8824;DHT22;4448;50.904;4.694;2023-10-09T01:12:15;18.50;99.90
8824;DHT22;4448;50.904;4.694;2023-10-09T01:14:44;18.50;99.90
8824;DHT22;4448;50.904;4.694;2023-10-09T01:17:10;18.50;99.90
8824;DHT22;4448;50.904;4.694;2023-10-09T01:19:37;18.50;99.90
8824;DHT22;4448;50.904;4.694;2023-10-09T01:22:03;18.50;99.90
8824;DHT22;4448;50.904;4.694;2023-10-09T01:24:39;18.50;99.90
8824;DHT22;4448;50.904;4.694;2023-10-09T01:27:05;18.40;99.90
8824;DHT22;4448;50.904;4.694;2023-10-09T01:29:38;18.50;99.90
8824;DHT22;4448;50.904;4.694;2023-10-09T01:32:05;18.50;99.90
8824;DHT22;4448;50.904;4.694;2023-10-09T01:34:33;18.50;99.90
8824;DHT22;4448;50.904;4.694;2023-10-09T01:37:20;18.50;99.90
8824;DHT22;4448;50.904;4.694;2023-10-09T01:39:57;18.50;99.90
8824;DHT22;4448;50.904;4.694;2023-10-09T01:42:25;18.50;99.90
8824;DHT22;4448;50.904;4.694;2023-10-09T01:45:00;18.50;99.90
8824;DHT22;4448;50.904;4.694;2023-10-09T01:47:52;18.50;99.90
8824;DHT22;4448;50.904;4.694;2023-10-09T01:50:19;18.50;99.90
8824;DHT22;4448;50.904;4.694;2023-10-09T01:52:47;18.50;99.90
8824;DHT22;4448;50.904;4.694;2023-10-09T01:55:13;18.50;99.90
8824;DHT22;4448;50.904;4.694;2023-10-09T01:57:53;18.60;99.90
8824;DHT22;4448;50.904;4.694;2023-10-09T02:00:19;18.50;99.90
8824;DHT22;4448;50.904;4.694;2023-10-09T02:02:49;18.50;99.90
8824;DHT22;4448;50.904;4.694;2023-10-09T02:05:16;18.50;99.90
8824;DHT22;4448;50.904;4.694;2023-10-09T02:07:42;18.60;99.90
8824;DHT22;4448;50.904;4.694;2023-10-09T02:10:17;18.50;99.90
8824;DHT22;4448;50.904;4.694;2023-10-09T02:12:59;18.50;99.90
8824;DHT22;4448;50.904;4.694;2023-10-09T02:15:29;18.50;99.90
8824;DHT22;4448;50.904;4.694;2023-10-09T02:18:16;18.50;99.90
8824;DHT22;4448;50.904;4.694;2023-10-09T02:20:53;18.50;99.90
8824;DHT22;4448;50.904;4.694;2023-10-09T02:23:34;18.50;99.90
8824;DHT22;4448;50.904;4.694;2023-10-09T02:26:03;18.50;99.90
8824;DHT22;4448;50.904;4.694;2023-10-09T02:28:31;18.50;99.90
8824;DHT22;4448;50.904;4.694;2023-10-09T02:30:58;18.50;99.90
8824;DHT22;4448;50.904;4.694;2023-10-09T02:33:26;18.50;99.90
8824;DHT22;4448;50.904;4.694;2023-10-09T02:35:59;18.50;99.90
8824;DHT22;4448;50.904;4.694;2023-10-09T02:38:33;18.50;99.90
8824;DHT22;4448;50.904;4.694;2023-10-09T02:41:01;18.50;99.90
8824;DHT22;4448;50.904;4.694;2023-10-09T02:43:34;18.50;99.90
8824;DHT22;4448;50.904;4.694;2023-10-09T02:46:13;18.50;99.90
8824;DHT22;4448;50.904;4.694;2023-10-09T02:48:49;18.40;99.90
8824;DHT22;4448;50.904;4.694;2023-10-09T02:51:22;18.50;99.90
8824;DHT22;4448;50.904;4.694;2023-10-09T02:54:09;18.40;99.90
8824;DHT22;4448;50.904;4.694;2023-10-09T02:56:52;18.40;99.90
8824;DHT22;4448;50.904;4.694;2023-10-09T02:59:34;18.50;99.90
8824;DHT22;4448;50.904;4.694;2023-10-09T03:02:00;18.40;99.90
8824;DHT22;4448;50.904;4.694;2023-10-09T03:04:26;18.40;99.90
8824;DHT22;4448;50.904;4.694;2023-10-09T03:07:00;18.30;99.90
8824;DHT22;4448;50.904;4.694;2023-10-09T03:09:26;18.40;99.90
8824;DHT22;4448;50.904;4.694;2023-10-09T03:11:57;18.30;99.90
8824;DHT22;4448;50.904;4.694;2023-10-09T03:14:32;18.40;99.90
8824;DHT22;4448;50.904;4.694;2023-10-09T03:17:00;18.40;99.90
8824;DHT22;4448;50.904;4.694;2023-10-09T03:19:31;18.60;99.90
8824;DHT22;4448;50.904;4.694;2023-10-09T03:22:03;18.30;99.90
8824;DHT22;4448;50.904;4.694;2023-10-09T03:24:29;18.30;99.90
8824;DHT22;4448;50.904;4.694;2023-10-09T03:26:56;18.30;99.90
8824;DHT22;4448;50.904;4.694;2023-10-09T03:29:23;18.30;99.90
8824;DHT22;4448;50.904;4.694;2023-10-09T03:31:48;18.30;99.90
8824;DHT22;4448;50.904;4.694;2023-10-09T03:34:16;18.30;99.90
8824;DHT22;4448;50.904;4.694;2023-10-09T03:36:43;18.30;99.90
8824;DHT22;4448;50.904;4.694;2023-10-09T03:39:09;18.30;99.90
8824;DHT22;4448;50.904;4.694;2023-10-09T03:41:51;18.30;99.90
8824;DHT22;4448;50.904;4.694;2023-10-09T03:44:17;18.30;99.90
8824;DHT22;4448;50.904;4.694;2023-10-09T03:46:46;18.30;99.90
8824;DHT22;4448;50.904;4.694;2023-10-09T03:49:12;18.20;99.90
8824;DHT22;4448;50.904;4.694;2023-10-09T03:51:39;18.20;99.90
8824;DHT22;4448;50.904;4.694;2023-10-09T03:54:05;18.40;99.90
8824;DHT22;4448;50.904;4.694;2023-10-09T03:56:35;18.20;99.90
8824;DHT22;4448;50.904;4.694;2023-10-09T03:59:00;18.20;99.90
8824;DHT22;4448;50.904;4.694;2023-10-09T04:01:30;18.20;99.90
8824;DHT22;4448;50.904;4.694;2023-10-09T04:04:03;18.20;99.90
8824;DHT22;4448;50.904;4.694;2023-10-09T04:06:31;18.20;99.90
8824;DHT22;4448;50.904;4.694;2023-10-09T04:09:05;18.20;99.90
8824;DHT22;4448;50.904;4.694;2023-10-09T04:11:40;18.20;99.90
8824;DHT22;4448;50.904;4.694;2023-10-09T04:14:09;18.20;99.90
8824;DHT22;4448;50.904;4.694;2023-10-09T04:16:47;18.20;99.90
8824;DHT22;4448;50.904;4.694;2023-10-09T04:19:51;18.10;99.90
8824;DHT22;4448;50.904;4.694;2023-10-09T04:22:39;18.20;99.90
8824;DHT22;4448;50.904;4.694;2023-10-09T04:25:06;18.10;99.90
8824;DHT22;4448;50.904;4.694;2023-10-09T04:27:46;18.10;99.90
8824;DHT22;4448;50.904;4.694;2023-10-09T04:30:12;18.20;99.90
8824;DHT22;4448;50.904;4.694;2023-10-09T04:32:41;18.20;99.90
8824;DHT22;4448;50.904;4.694;2023-10-09T04:35:10;18.10;99.90
8824;DHT22;4448;50.904;4.694;2023-10-09T04:37:49;18.10;99.90
8824;DHT22;4448;50.904;4.694;2023-10-09T04:40:32;18.10;99.90
8824;DHT22;4448;50.904;4.694;2023-10-09T04:43:14;18.10;99.90
8824;DHT22;4448;50.904;4.694;2023-10-09T04:45:48;18.10;99.90
8824;DHT22;4448;50.904;4.694;2023-10-09T04:48:34;18.10;99.90
8824;DHT22;4448;50.904;4.694;2023-10-09T04:51:11;18.10;99.90
8824;DHT22;4448;50.904;4.694;2023-10-09T04:54:03;18.10;99.90
8824;DHT22;4448;50.904;4.694;2023-10-09T04:56:39;18.10;99.90
8824;DHT22;4448;50.904;4.694;2023-10-09T04:59:20;18.10;99.90
8824;DHT22;4448;50.904;4.694;2023-10-09T05:01:53;18.10;99.90
8824;DHT22;4448;50.904;4.694;2023-10-09T05:04:25;18.10;99.90
8824;DHT22;4448;50.904;4.694;2023-10-09T05:07:06;18.10;99.90
8824;DHT22;4448;50.904;4.694;2023-10-09T05:09:51;18.20;99.90
8824;DHT22;4448;50.904;4.694;2023-10-09T05:12:40;18.10;99.90
8824;DHT22;4448;50.904;4.694;2023-10-09T05:15:13;18.10;99.90
8824;DHT22;4448;50.904;4.694;2023-10-09T05:17:39;18.10;99.90
8824;DHT22;4448;50.904;4.694;2023-10-09T05:20:06;18.10;99.90
8824;DHT22;4448;50.904;4.694;2023-10-09T05:22:51;18.10;99.90
8824;DHT22;4448;50.904;4.694;2023-10-09T05:25:26;18.00;99.90
8824;DHT22;4448;50.904;4.694;2023-10-09T05:28:10;18.10;99.90
8824;DHT22;4448;50.904;4.694;2023-10-09T05:30:59;18.10;99.90
8824;DHT22;4448;50.904;4.694;2023-10-09T05:33:37;18.10;99.90
8824;DHT22;4448;50.904;4.694;2023-10-09T05:36:05;18.10;99.90
8824;DHT22;4448;50.904;4.694;2023-10-09T05:38:42;18.10;99.90
8824;DHT22;4448;50.904;4.694;2023-10-09T05:41:25;18.00;99.90
8824;DHT22;4448;50.904;4.694;2023-10-09T05:44:11;18.00;99.90
8824;DHT22;4448;50.904;4.694;2023-10-09T05:46:56;18.00;99.90
8824;DHT22;4448;50.904;4.694;2023-10-09T05:49:40;18.00;99.90
8824;DHT22;4448;50.904;4.694;2023-10-09T05:52:14;18.00;99.90
8824;DHT22;4448;50.904;4.694;2023-10-09T05:55:25;18.00;99.90
8824;DHT22;4448;50.904;4.694;2023-10-09T05:58:11;17.90;99.90
8824;DHT22;4448;50.904;4.694;2023-10-09T06:00:55;18.00;99.90
8824;DHT22;4448;50.904;4.694;2023-10-09T06:03:39;18.00;99.90
8824;DHT22;4448;50.904;4.694;2023-10-09T06:06:15;18.00;99.90
8824;DHT22;4448;50.904;4.694;2023-10-09T06:09:07;18.00;99.90
8824;DHT22;4448;50.904;4.694;2023-10-09T06:11:42;18.00;99.90
8824;DHT22;4448;50.904;4.694;2023-10-09T06:14:19;18.00;99.90
8824;DHT22;4448;50.904;4.694;2023-10-09T06:17:11;17.90;99.90
8824;DHT22;4448;50.904;4.694;2023-10-09T06:19:37;18.00;99.90
8824;DHT22;4448;50.904;4.694;2023-10-09T06:22:09;18.00;99.90
8824;DHT22;4448;50.904;4.694;2023-10-09T06:24:38;18.00;99.90
8824;DHT22;4448;50.904;4.694;2023-10-09T06:27:19;18.00;99.90
8824;DHT22;4448;50.904;4.694;2023-10-09T06:29:58;17.90;99.90
8824;DHT22;4448;50.904;4.694;2023-10-09T06:32:40;18.00;99.90
8824;DHT22;4448;50.904;4.694;2023-10-09T06:35:20;18.00;99.90
8824;DHT22;4448;50.904;4.694;2023-10-09T06:37:56;18.00;99.90
8824;DHT22;4448;50.904;4.694;2023-10-09T06:40:35;18.00;99.90
8824;DHT22;4448;50.904;4.694;2023-10-09T06:43:20;18.00;99.90
8824;DHT22;4448;50.904;4.694;2023-10-09T06:45:56;18.00;99.90
8824;DHT22;4448;50.904;4.694;2023-10-09T06:48:41;18.00;99.90
8824;DHT22;4448;50.904;4.694;2023-10-09T06:51:11;18.00;99.90
8824;DHT22;4448;50.904;4.694;2023-10-09T06:53:56;18.00;99.90
8824;DHT22;4448;50.904;4.694;2023-10-09T06:56:26;18.00;99.90
8824;DHT22;4448;50.904;4.694;2023-10-09T06:58:55;18.00;99.90
8824;DHT22;4448;50.904;4.694;2023-10-09T07:01:26;18.10;99.90
8824;DHT22;4448;50.904;4.694;2023-10-09T07:04:05;18.10;99.90
8824;DHT22;4448;50.904;4.694;2023-10-09T07:07:06;18.10;99.90
8824;DHT22;4448;50.904;4.694;2023-10-09T07:09:47;18.00;99.90
8824;DHT22;4448;50.904;4.694;2023-10-09T07:12:34;18.20;99.90
8824;DHT22;4448;50.904;4.694;2023-10-09T07:15:08;18.20;99.90
8824;DHT22;4448;50.904;4.694;2023-10-09T07:17:34;18.20;99.90
8824;DHT22;4448;50.904;4.694;2023-10-09T07:19:59;18.20;99.90
8824;DHT22;4448;50.904;4.694;2023-10-09T07:22:54;18.10;99.90
8824;DHT22;4448;50.904;4.694;2023-10-09T07:25:39;18.20;99.90
8824;DHT22;4448;50.904;4.694;2023-10-09T07:28:22;18.20;99.90
8824;DHT22;4448;50.904;4.694;2023-10-09T07:31:08;18.30;99.90
8824;DHT22;4448;50.904;4.694;2023-10-09T07:33:52;18.30;99.90
8824;DHT22;4448;50.904;4.694;2023-10-09T07:36:25;18.30;99.90
8824;DHT22;4448;50.904;4.694;2023-10-09T07:39:02;18.30;99.90
8824;DHT22;4448;50.904;4.694;2023-10-09T07:41:32;18.30;99.90
8824;DHT22;4448;50.904;4.694;2023-10-09T07:43:57;18.40;99.90
8824;DHT22;4448;50.904;4.694;2023-10-09T07:46:23;18.40;99.90
8824;DHT22;4448;50.904;4.694;2023-10-09T07:49:00;18.40;99.90
8824;DHT22;4448;50.904;4.694;2023-10-09T07:51:37;18.40;99.90
8824;DHT22;4448;50.904;4.694;2023-10-09T07:54:03;18.50;99.90
8824;DHT22;4448;50.904;4.694;2023-10-09T07:56:36;18.50;99.90
8824;DHT22;4448;50.904;4.694;2023-10-09T07:59:10;18.50;99.90
8824;DHT22;4448;50.904;4.694;2023-10-09T08:01:47;18.50;99.90
8824;DHT22;4448;50.904;4.694;2023-10-09T08:04:24;18.60;99.90
8824;DHT22;4448;50.904;4.694;2023-10-09T08:07:10;18.80;99.90
8824;DHT22;4448;50.904;4.694;2023-10-09T08:09:45;18.70;99.90
8824;DHT22;4448;50.904;4.694;2023-10-09T08:12:17;18.90;99.90
8824;DHT22;4448;50.904;4.694;2023-10-09T08:15:02;19.20;99.90
8824;DHT22;4448;50.904;4.694;2023-10-09T08:17:57;18.90;99.90
8824;DHT22;4448;50.904;4.694;2023-10-09T08:20:36;18.90;99.90
8824;DHT22;4448;50.904;4.694;2023-10-09T08:23:22;19.00;99.90
8824;DHT22;4448;50.904;4.694;2023-10-09T08:26:14;19.40;99.90
8824;DHT22;4448;50.904;4.694;2023-10-09T08:28:44;19.00;99.90
8824;DHT22;4448;50.904;4.694;2023-10-09T08:31:16;19.00;99.90
8824;DHT22;4448;50.904;4.694;2023-10-09T08:34:03;19.00;99.90
8824;DHT22;4448;50.904;4.694;2023-10-09T08:36:29;19.10;99.90
8824;DHT22;4448;50.904;4.694;2023-10-09T08:39:04;19.10;99.90
8824;DHT22;4448;50.904;4.694;2023-10-09T08:41:49;19.10;99.90
8824;DHT22;4448;50.904;4.694;2023-10-09T08:44:19;19.30;99.90
8824;DHT22;4448;50.904;4.694;2023-10-09T08:46:48;19.20;99.90
8824;DHT22;4448;50.904;4.694;2023-10-09T08:49:16;19.30;99.90
8824;DHT22;4448;50.904;4.694;2023-10-09T08:51:42;19.40;99.90
8824;DHT22;4448;50.904;4.694;2023-10-09T08:54:08;19.30;99.90
8824;DHT22;4448;50.904;4.694;2023-10-09T08:56:37;19.40;99.90
8824;DHT22;4448;50.904;4.694;2023-10-09T08:59:05;19.50;99.90
8824;DHT22;4448;50.904;4.694;2023-10-09T09:01:30;19.40;99.90
8824;DHT22;4448;50.904;4.694;2023-10-09T09:03:59;19.50;99.90
8824;DHT22;4448;50.904;4.694;2023-10-09T09:06:36;19.50;99.90
8824;DHT22;4448;50.904;4.694;2023-10-09T09:09:12;19.50;99.90
8824;DHT22;4448;50.904;4.694;2023-10-09T09:11:42;19.70;99.90
8824;DHT22;4448;50.904;4.694;2023-10-09T09:14:14;19.70;99.90
8824;DHT22;4448;50.904;4.694;2023-10-09T09:16:45;19.80;99.90
8824;DHT22;4448;50.904;4.694;2023-10-09T09:19:14;20.00;99.90
8824;DHT22;4448;50.904;4.694;2023-10-09T09:21:51;20.10;99.90
8824;DHT22;4448;50.904;4.694;2023-10-09T09:24:20;20.10;99.90
8824;DHT22;4448;50.904;4.694;2023-10-09T09:26:54;20.10;99.90
8824;DHT22;4448;50.904;4.694;2023-10-09T09:32:08;20.30;99.90
8824;DHT22;4448;50.904;4.694;2023-10-09T09:34:51;20.40;99.90
8824;DHT22;4448;50.904;4.694;2023-10-09T09:37:26;20.40;99.90
8824;DHT22;4448;50.904;4.694;2023-10-09T09:40:08;20.40;99.90
8824;DHT22;4448;50.904;4.694;2023-10-09T09:42:57;20.50;99.90
8824;DHT22;4448;50.904;4.694;2023-10-09T09:45:35;20.60;99.90
8824;DHT22;4448;50.904;4.694;2023-10-09T09:48:05;20.70;99.90
8824;DHT22;4448;50.904;4.694;2023-10-09T09:50:33;20.90;99.90
8824;DHT22;4448;50.904;4.694;2023-10-09T09:52:59;21.00;99.90
8824;DHT22;4448;50.904;4.694;2023-10-09T09:55:29;21.10;99.90
8824;DHT22;4448;50.904;4.694;2023-10-09T09:57:58;21.20;99.90
8824;DHT22;4448;50.904;4.694;2023-10-09T10:00:30;21.30;99.90
8824;DHT22;4448;50.904;4.694;2023-10-09T10:03:17;21.40;99.90
8824;DHT22;4448;50.904;4.694;2023-10-09T10:05:45;21.50;99.90
8824;DHT22;4448;50.904;4.694;2023-10-09T10:08:16;21.50;99.90
8824;DHT22;4448;50.904;4.694;2023-10-09T10:10:48;21.50;99.90
8824;DHT22;4448;50.904;4.694;2023-10-09T10:16:09;21.40;99.90
8824;DHT22;4448;50.904;4.694;2023-10-09T10:21:26;21.20;99.90
8824;DHT22;4448;50.904;4.694;2023-10-09T10:24:01;21.30;99.90
8824;DHT22;4448;50.904;4.694;2023-10-09T10:26:36;21.30;99.90
8824;DHT22;4448;50.904;4.694;2023-10-09T10:29:20;21.20;99.90
8824;DHT22;4448;50.904;4.694;2023-10-09T10:32:02;21.20;99.90
8824;DHT22;4448;50.904;4.694;2023-10-09T10:34:53;21.20;99.90
8824;DHT22;4448;50.904;4.694;2023-10-09T10:40:26;21.40;99.90
8824;DHT22;4448;50.904;4.694;2023-10-09T10:43:06;21.40;99.90
8824;DHT22;4448;50.904;4.694;2023-10-09T10:45:36;21.50;99.90
8824;DHT22;4448;50.904;4.694;2023-10-09T10:48:09;21.50;99.90
8824;DHT22;4448;50.904;4.694;2023-10-09T10:50:49;21.50;99.90
8824;DHT22;4448;50.904;4.694;2023-10-09T10:53:22;21.50;99.90
8824;DHT22;4448;50.904;4.694;2023-10-09T10:55:59;21.60;99.90
8824;DHT22;4448;50.904;4.694;2023-10-09T10:58:52;21.60;99.90
8824;DHT22;4448;50.904;4.694;2023-10-09T11:01:33;21.50;99.90
8824;DHT22;4448;50.904;4.694;2023-10-09T11:04:22;21.60;99.90
8824;DHT22;4448;50.904;4.694;2023-10-09T11:06:54;21.60;99.90
8824;DHT22;4448;50.904;4.694;2023-10-09T11:09:26;21.60;99.90
8824;DHT22;4448;50.904;4.694;2023-10-09T11:12:05;21.60;99.90
8824;DHT22;4448;50.904;4.694;2023-10-09T11:14:48;21.60;99.90
8824;DHT22;4448;50.904;4.694;2023-10-09T11:17:35;21.70;99.90
8824;DHT22;4448;50.904;4.694;2023-10-09T11:20:05;21.70;99.90
8824;DHT22;4448;50.904;4.694;2023-10-09T11:22:52;21.60;99.90
8824;DHT22;4448;50.904;4.694;2023-10-09T11:25:45;21.80;99.90
8824;DHT22;4448;50.904;4.694;2023-10-09T11:28:18;21.70;99.90
8824;DHT22;4448;50.904;4.694;2023-10-09T11:31:14;21.80;99.90
8824;DHT22;4448;50.904;4.694;2023-10-09T11:33:50;21.80;99.90
8824;DHT22;4448;50.904;4.694;2023-10-09T11:36:21;21.80;99.90
8824;DHT22;4448;50.904;4.694;2023-10-09T11:39:24;21.80;99.90
8824;DHT22;4448;50.904;4.694;2023-10-09T11:42:07;21.80;99.90
8824;DHT22;4448;50.904;4.694;2023-10-09T11:44:40;21.80;99.90
8824;DHT22;4448;50.904;4.694;2023-10-09T11:47:09;21.90;99.90
8824;DHT22;4448;50.904;4.694;2023-10-09T11:50:07;21.80;99.90
8824;DHT22;4448;50.904;4.694;2023-10-09T11:52:57;21.90;99.90
8824;DHT22;4448;50.904;4.694;2023-10-09T11:55:35;21.90;99.90
8824;DHT22;4448;50.904;4.694;2023-10-09T11:58:01;22.00;99.90
8824;DHT22;4448;50.904;4.694;2023-10-09T12:00:28;21.90;99.90
8824;DHT22;4448;50.904;4.694;2023-10-09T12:02:57;21.90;99.90
8824;DHT22;4448;50.904;4.694;2023-10-09T12:05:34;22.00;99.90
8824;DHT22;4448;50.904;4.694;2023-10-09T12:08:00;21.90;99.90
8824;DHT22;4448;50.904;4.694;2023-10-09T12:10:27;21.90;99.90
8824;DHT22;4448;50.904;4.694;2023-10-09T12:12:55;22.00;99.90
8824;DHT22;4448;50.904;4.694;2023-10-09T12:15:24;22.00;99.90
8824;DHT22;4448;50.904;4.694;2023-10-09T12:17:50;22.00;99.90
8824;DHT22;4448;50.904;4.694;2023-10-09T12:20:19;22.10;99.90
8824;DHT22;4448;50.904;4.694;2023-10-09T12:23:01;22.10;99.90
8824;DHT22;4448;50.904;4.694;2023-10-09T12:25:32;22.10;99.90
8824;DHT22;4448;50.904;4.694;2023-10-09T12:28:00;22.10;99.90
8824;DHT22;4448;50.904;4.694;2023-10-09T12:30:28;22.10;99.90
8824;DHT22;4448;50.904;4.694;2023-10-09T12:32:55;22.10;99.90
8824;DHT22;4448;50.904;4.694;2023-10-09T12:35:26;22.10;99.90
8824;DHT22;4448;50.904;4.694;2023-10-09T12:37:55;22.10;99.90
8824;DHT22;4448;50.904;4.694;2023-10-09T12:40:24;22.10;99.90
8824;DHT22;4448;50.904;4.694;2023-10-09T12:42:51;22.10;99.90
8824;DHT22;4448;50.904;4.694;2023-10-09T12:45:18;22.00;99.90
8824;DHT22;4448;50.904;4.694;2023-10-09T12:47:54;22.00;99.90
8824;DHT22;4448;50.904;4.694;2023-10-09T12:50:25;22.00;99.90
8824;DHT22;4448;50.904;4.694;2023-10-09T12:52:57;22.00;99.90
8824;DHT22;4448;50.904;4.694;2023-10-09T12:55:28;22.00;99.90
8824;DHT22;4448;50.904;4.694;2023-10-09T12:58:01;22.00;99.90
8824;DHT22;4448;50.904;4.694;2023-10-09T13:00:32;22.00;99.90
8824;DHT22;4448;50.904;4.694;2023-10-09T13:02:59;22.00;99.90
8824;DHT22;4448;50.904;4.694;2023-10-09T13:05:27;22.00;99.90
8824;DHT22;4448;50.904;4.694;2023-10-09T13:07:53;22.00;99.90
8824;DHT22;4448;50.904;4.694;2023-10-09T13:10:23;22.00;99.90
8824;DHT22;4448;50.904;4.694;2023-10-09T13:12:49;21.90;99.90
8824;DHT22;4448;50.904;4.694;2023-10-09T13:15:21;21.90;99.90
8824;DHT22;4448;50.904;4.694;2023-10-09T13:17:46;21.90;99.90
8824;DHT22;4448;50.904;4.694;2023-10-09T13:20:13;21.90;99.90
8824;DHT22;4448;50.904;4.694;2023-10-09T13:22:39;22.00;99.90
8824;DHT22;4448;50.904;4.694;2023-10-09T13:25:07;21.90;99.90
8824;DHT22;4448;50.904;4.694;2023-10-09T13:27:40;21.90;99.90
8824;DHT22;4448;50.904;4.694;2023-10-09T13:30:06;22.00;99.90
8824;DHT22;4448;50.904;4.694;2023-10-09T13:32:33;22.00;99.90
8824;DHT22;4448;50.904;4.694;2023-10-09T13:35:02;22.00;99.90
8824;DHT22;4448;50.904;4.694;2023-10-09T13:37:31;21.80;99.90
8824;DHT22;4448;50.904;4.694;2023-10-09T13:40:05;21.90;99.90
8824;DHT22;4448;50.904;4.694;2023-10-09T13:42:36;21.90;99.90
8824;DHT22;4448;50.904;4.694;2023-10-09T13:45:03;21.80;99.90
8824;DHT22;4448;50.904;4.694;2023-10-09T13:47:44;21.80;99.90
8824;DHT22;4448;50.904;4.694;2023-10-09T13:50:10;21.90;99.90
8824;DHT22;4448;50.904;4.694;2023-10-09T13:52:35;21.90;99.90
8824;DHT22;4448;50.904;4.694;2023-10-09T13:55:06;21.90;99.90
8824;DHT22;4448;50.904;4.694;2023-10-09T13:57:41;22.00;99.90
8824;DHT22;4448;50.904;4.694;2023-10-09T14:00:14;22.00;99.90
8824;DHT22;4448;50.904;4.694;2023-10-09T14:02:58;22.00;99.90
8824;DHT22;4448;50.904;4.694;2023-10-09T14:05:27;22.00;99.90
8824;DHT22;4448;50.904;4.694;2023-10-09T14:07:53;21.90;99.90
8824;DHT22;4448;50.904;4.694;2023-10-09T14:10:26;21.90;99.90
8824;DHT22;4448;50.904;4.694;2023-10-09T14:12:56;21.90;99.90
8824;DHT22;4448;50.904;4.694;2023-10-09T14:15:23;21.90;99.90
8824;DHT22;4448;50.904;4.694;2023-10-09T14:17:49;21.80;99.90
8824;DHT22;4448;50.904;4.694;2023-10-09T14:20:24;21.90;99.90
8824;DHT22;4448;50.904;4.694;2023-10-09T14:22:58;21.80;99.90
8824;DHT22;4448;50.904;4.694;2023-10-09T14:25:32;21.80;99.90
8824;DHT22;4448;50.904;4.694;2023-10-09T14:27:58;21.80;99.90
8824;DHT22;4448;50.904;4.694;2023-10-09T14:30:24;21.70;99.90
8824;DHT22;4448;50.904;4.694;2023-10-09T14:32:59;21.70;99.90
8824;DHT22;4448;50.904;4.694;2023-10-09T14:35:27;21.70;99.90
8824;DHT22;4448;50.904;4.694;2023-10-09T14:37:56;21.70;99.90
8824;DHT22;4448;50.904;4.694;2023-10-09T14:40:22;21.70;99.90
8824;DHT22;4448;50.904;4.694;2023-10-09T14:42:56;21.70;99.90
8824;DHT22;4448;50.904;4.694;2023-10-09T14:45:26;21.70;99.90
8824;DHT22;4448;50.904;4.694;2023-10-09T14:47:53;21.70;99.90
8824;DHT22;4448;50.904;4.694;2023-10-09T14:50:20;21.70;99.90
8824;DHT22;4448;50.904;4.694;2023-10-09T14:52:48;21.70;99.90
8824;DHT22;4448;50.904;4.694;2023-10-09T14:55:16;21.80;99.90
8824;DHT22;4448;50.904;4.694;2023-10-09T14:57:47;21.70;99.90
8824;DHT22;4448;50.904;4.694;2023-10-09T15:00:15;21.70;99.90
8824;DHT22;4448;50.904;4.694;2023-10-09T15:02:41;21.70;99.90
8824;DHT22;4448;50.904;4.694;2023-10-09T15:05:07;21.70;99.90
8824;DHT22;4448;50.904;4.694;2023-10-09T15:07:37;21.60;99.90
8824;DHT22;4448;50.904;4.694;2023-10-09T15:10:07;21.70;99.90
8824;DHT22;4448;50.904;4.694;2023-10-09T15:12:35;21.60;99.90
8824;DHT22;4448;50.904;4.694;2023-10-09T15:15:06;21.50;99.90
8824;DHT22;4448;50.904;4.694;2023-10-09T15:17:40;21.60;99.90
8824;DHT22;4448;50.904;4.694;2023-10-09T15:20:13;21.60;99.90
8824;DHT22;4448;50.904;4.694;2023-10-09T15:22:43;21.50;99.90
8824;DHT22;4448;50.904;4.694;2023-10-09T15:25:10;21.50;99.90
8824;DHT22;4448;50.904;4.694;2023-10-09T15:27:40;21.60;99.90
8824;DHT22;4448;50.904;4.694;2023-10-09T15:30:07;21.50;99.90
8824;DHT22;4448;50.904;4.694;2023-10-09T15:32:42;21.50;99.90
8824;DHT22;4448;50.904;4.694;2023-10-09T15:35:09;21.50;99.90
8824;DHT22;4448;50.904;4.694;2023-10-09T15:37:36;21.40;99.90
8824;DHT22;4448;50.904;4.694;2023-10-09T15:40:02;21.30;99.90
8824;DHT22;4448;50.904;4.694;2023-10-09T15:42:40;21.20;99.90
8824;DHT22;4448;50.904;4.694;2023-10-09T15:45:06;21.20;99.90
8824;DHT22;4448;50.904;4.694;2023-10-09T15:47:32;21.20;99.90
8824;DHT22;4448;50.904;4.694;2023-10-09T15:50:02;21.10;99.90
8824;DHT22;4448;50.904;4.694;2023-10-09T15:52:29;21.10;99.90
8824;DHT22;4448;50.904;4.694;2023-10-09T15:54:55;21.10;99.90
8824;DHT22;4448;50.904;4.694;2023-10-09T15:57:21;21.00;99.90
8824;DHT22;4448;50.904;4.694;2023-10-09T15:59:47;21.00;99.90
8824;DHT22;4448;50.904;4.694;2023-10-09T16:02:15;20.90;99.90
8824;DHT22;4448;50.904;4.694;2023-10-09T16:04:42;20.90;99.90
8824;DHT22;4448;50.904;4.694;2023-10-09T16:07:08;20.90;99.90
8824;DHT22;4448;50.904;4.694;2023-10-09T16:09:35;20.90;99.90
8824;DHT22;4448;50.904;4.694;2023-10-09T16:12:07;20.80;99.90
8824;DHT22;4448;50.904;4.694;2023-10-09T16:14:38;20.80;99.90
8824;DHT22;4448;50.904;4.694;2023-10-09T16:17:04;20.90;99.90
8824;DHT22;4448;50.904;4.694;2023-10-09T16:19:31;20.70;99.90
8824;DHT22;4448;50.904;4.694;2023-10-09T16:22:01;20.70;99.90
8824;DHT22;4448;50.904;4.694;2023-10-09T16:24:31;20.60;99.90
8824;DHT22;4448;50.904;4.694;2023-10-09T16:27:01;20.60;99.90
8824;DHT22;4448;50.904;4.694;2023-10-09T16:29:26;20.60;99.90
8824;DHT22;4448;50.904;4.694;2023-10-09T16:31:53;20.60;99.90
8824;DHT22;4448;50.904;4.694;2023-10-09T16:34:21;20.60;99.90
8824;DHT22;4448;50.904;4.694;2023-10-09T16:36:51;20.50;99.90
8824;DHT22;4448;50.904;4.694;2023-10-09T16:39:16;20.50;99.90
8824;DHT22;4448;50.904;4.694;2023-10-09T16:41:50;20.50;99.90
8824;DHT22;4448;50.904;4.694;2023-10-09T16:44:15;20.40;99.90
8824;DHT22;4448;50.904;4.694;2023-10-09T16:46:45;20.40;99.90
8824;DHT22;4448;50.904;4.694;2023-10-09T16:49:11;20.40;99.90
8824;DHT22;4448;50.904;4.694;2023-10-09T16:51:39;20.40;99.90
8824;DHT22;4448;50.904;4.694;2023-10-09T16:54:11;20.30;99.90